Haneyville, Pennsylvania
Current Conditions -  °F | °C
As of 7:54 PM on Sunday 23 Nov 2014 (Local Time) from KIPT Reporting Station
Clear Clear  
Wind Chill: 42°   Ceiling: Unl
Heat Index: 47°   Visibility: 10mi
Dew Point: 28°   Wind: 10mph
Humidity: 48%   Direction: 130°SE
Pressure: 29.98"   Gusts: NA
Location:  41.2558°N, 77.4987°W
Report Text: KIPT 240054Z 13009KT 10SM CLR 08/M02 A2998 RMK AO2 SLP155 T00831022
Loading
Personal Weather Stations






























Interactive Weather Map New forecast layout! Learn more

10-Day Weather Forecast

Advertisements
Track Severe Weather on mobile